Time;durP1;ratioP1;P1;durP2;ratioP2;P2;SDS_P1;SDS_P2;PMS_P1;PMS_P2;Temp;Humidity;BMP_temperature;BMP_pressure;BME280_temperature;BME280_humidity;BME280_pressure;Samples;Min_cycle;Max_cycle;Signal;HPM_P1;HPM_P2
2022/02/28 00:00:16;;;;;;;;;;;;;;;;;;5028314;28;20346;-57
2022/02/28 00:02:42;;;;;;;;;;;;;;;;;;5035289;28;19909;-57
2022/02/28 00:05:07;;;;;;;;;;;;;;;;;;5035603;28;19909;-57
2022/02/28 00:07:32;;;;;;;;;;;;;;;;;;5017538;28;20342;-57
2022/02/28 00:09:57;;;;;;;;;;;;;;;;;;5033036;28;19913;-57
2022/02/28 00:12:23;;;;;;;;;;;;;;;;;;5035673;28;19913;-57
2022/02/28 00:14:48;;;;;;;;;;;;;;;;;;5035332;28;19913;-58
2022/02/28 00:17:13;;;;;;;;;;;;;;;;;;5050724;28;19916;-58
2022/02/28 00:19:40;;;;;;;;;;;;;;;;;;5027922;28;19912;-58
2022/02/28 00:22:05;;;;;;;;;;;;;;;;;;5015672;28;20333;-57
2022/02/28 00:24:30;;;;;;;;;;;;;;;;;;5030464;28;19913;-57
2022/02/28 00:26:55;;;;;;;;;;;;;;;;;;5015262;28;20006;-57
2022/02/28 00:29:20;;;;;;;;;;;;;;;;;;5030763;28;19913;-57
2022/02/28 00:31:46;;;;;;;;;;;;;;;;;;5030564;28;19910;-57
2022/02/28 00:34:11;;;;;;;;;;;;;;;;;;5030421;28;19909;-57
2022/02/28 00:36:36;;;;;;;;;;;;;;;;;;5030239;28;19910;-57
2022/02/28 00:39:01;;;;;;;;;;;;;;;;;;5030355;28;19909;-57
2022/02/28 00:41:27;;;;;;;;;;;;;;;;;;5015115;28;19916;-57
2022/02/28 00:43:52;;;;;;;;;;;;;;;;;;5030237;28;19912;-57
2022/02/28 00:46:19;;;;;;;;;;;;;;;;;;5015220;28;19920;-58
2022/02/28 00:48:44;;;;;;;;;;;;;;;;;;5030184;28;19917;-57
2022/02/28 00:51:09;;;;;;;;;;;;;;;;;;5030131;28;19916;-57
2022/02/28 00:53:35;;;;;;;;;;;;;;;;;;5030087;28;19964;-58
2022/02/28 00:56:00;;;;;;;;;;;;;;;;;;5030039;28;19910;-57
2022/02/28 00:58:26;;;;;;;;;;;;;;;;;;5030404;28;19928;-58
2022/02/28 01:00:51;;;;;;;;;;;;;;;;;;5014688;28;20265;-58
2022/02/28 01:03:18;;;;;;;;;;;;;;;;;;5030487;28;19968;-58
2022/02/28 01:05:43;;;;;;;;;;;;;;;;;;5030174;28;19909;-57
2022/02/28 01:08:09;;;;;;;;;;;;;;;;;;5014350;28;19913;-58
2022/02/28 01:10:34;;;;;;;;;;;;;;;;;;5029904;28;20000;-58
2022/02/28 01:12:59;;;;;;;;;;;;;;;;;;5030125;28;19909;-57
2022/02/28 01:15:24;;;;;;;;;;;;;;;;;;5029602;28;19917;-57
2022/02/28 01:17:50;;;;;;;;;;;;;;;;;;5014843;28;19913;-57
2022/02/28 01:20:15;;;;;;;;;;;;;;;;;;5029641;28;20350;-57
2022/02/28 01:22:41;;;;;;;;;;;;;;;;;;5030198;28;19909;-56
2022/02/28 01:25:06;;;;;;;;;;;;;;;;;;5030171;28;19910;-57
2022/02/28 01:27:31;;;;;;;;;;;;;;;;;;5029858;28;20315;-57
2022/02/28 01:29:57;;;;;;;;;;;;;;;;;;5014441;28;20313;-57
2022/02/28 01:32:22;;;;;;;;;;;;;;;;;;5014623;28;20239;-57
2022/02/28 01:34:48;;;;;;;;;;;;;;;;;;5014394;28;20342;-58
2022/02/28 01:37:13;;;;;;;;;;;;;;;;;;5029490;28;20239;-58
2022/02/28 01:39:40;;;;;;;;;;;;;;;;;;5014715;28;19920;-57
2022/02/28 01:42:06;;;;;;;;;;;;;;;;;;5013084;28;19920;-57
2022/02/28 01:44:31;;;;;;;;;;;;;;;;;;5014158;28;19914;-58
2022/02/28 01:46:56;;;;;;;;;;;;;;;;;;5029680;28;19909;-57
2022/02/28 01:49:22;;;;;;;;;;;;;;;;;;5029666;28;19913;-57
2022/02/28 01:51:47;;;;;;;;;;;;;;;;;;5042271;28;19905;-58
2022/02/28 01:54:12;;;;;;;;;;;;;;;;;;5016230;28;20000;-57
2022/02/28 01:56:37;;;;;;;;;;;;;;;;;;5032640;28;19972;-61
2022/02/28 01:59:02;;;;;;;;;;;;;;;;;;5013873;28;19909;-57
2022/02/28 02:01:28;;;;;;;;;;;;;;;;;;5016685;28;19909;-57
2022/02/28 02:03:53;;;;;;;;;;;;;;;;;;5016243;28;19956;-57
2022/02/28 02:06:18;;;;;;;;;;;;;;;;;;5016257;28;19912;-64
2022/02/28 02:08:44;;;;;;;;;;;;;;;;;;5033770;28;19909;-59
2022/02/28 02:11:09;;;;;;;;;;;;;;;;;;5016871;28;20312;-56
2022/02/28 02:13:35;;;;;;;;;;;;;;;;;;5012491;28;19915;-57
2022/02/28 02:16:01;;;;;;;;;;;;;;;;;;4996508;28;19913;-58
2022/02/28 02:18:26;;;;;;;;;;;;;;;;;;4996351;28;20012;-57
2022/02/28 02:20:52;;;;;;;;;;;;;;;;;;4996369;28;19909;-58
2022/02/28 02:23:17;;;;;;;;;;;;;;;;;;5013902;28;19909;-59
2022/02/28 02:25:42;;;;;;;;;;;;;;;;;;4996818;28;19968;-57
2022/02/28 02:28:08;;;;;;;;;;;;;;;;;;4996490;28;19988;-57
2022/02/28 02:30:33;;;;;;;;;;;;;;;;;;4997906;28;19909;-57
2022/02/28 02:32:59;;;;;;;;;;;;;;;;;;5016857;28;19920;-57
2022/02/28 02:35:25;;;;;;;;;;;;;;;;;;5016184;28;19910;-57
2022/02/28 02:37:51;;;;;;;;;;;;;;;;;;5000038;28;19979;-57
2022/02/28 02:40:16;;;;;;;;;;;;;;;;;;4997597;28;19944;-56
2022/02/28 02:42:41;;;;;;;;;;;;;;;;;;5000004;28;20010;-57
2022/02/28 02:45:07;;;;;;;;;;;;;;;;;;4999647;28;20358;-57
2022/02/28 02:47:32;;;;;;;;;;;;;;;;;;4983007;28;19913;-57
2022/02/28 02:50:06;;;;;;;;;;;;;;;;;;4999719;28;19914;-57
2022/02/28 02:52:32;;;;;;;;;;;;;;;;;;4999274;28;19910;-58
2022/02/28 02:54:58;;;;;;;;;;;;;;;;;;4984096;28;19963;-57
2022/02/28 02:57:25;;;;;;;;;;;;;;;;;;5000018;28;19980;-57
2022/02/28 02:59:51;;;;;;;;;;;;;;;;;;4999339;28;20281;-56
2022/02/28 03:02:16;;;;;;;;;;;;;;;;;;4999618;28;20000;-56
2022/02/28 03:04:41;;;;;;;;;;;;;;;;;;4999346;28;19905;-56
2022/02/28 03:07:07;;;;;;;;;;;;;;;;;;4999992;28;19921;-57
2022/02/28 03:09:32;;;;;;;;;;;;;;;;;;4999751;28;19956;-56
2022/02/28 03:11:57;;;;;;;;;;;;;;;;;;4999441;28;19905;-56
2022/02/28 03:14:22;;;;;;;;;;;;;;;;;;4998986;28;20341;-57
2022/02/28 03:16:48;;;;;;;;;;;;;;;;;;4999436;28;20305;-58
2022/02/28 03:19:13;;;;;;;;;;;;;;;;;;4999020;28;19906;-57
2022/02/28 03:21:44;;;;;;;;;;;;;;;;;;4999560;28;19916;-58
2022/02/28 03:24:10;;;;;;;;;;;;;;;;;;5014823;28;19909;-57
2022/02/28 03:26:36;;;;;;;;;;;;;;;;;;5018702;28;19963;-57
2022/02/28 03:29:02;;;;;;;;;;;;;;;;;;5018771;28;19913;-57
2022/02/28 03:31:27;;;;;;;;;;;;;;;;;;5036239;28;19913;-57
2022/02/28 03:33:52;;;;;;;;;;;;;;;;;;5018395;28;19909;-57
2022/02/28 03:36:18;;;;;;;;;;;;;;;;;;5018311;28;20365;-57
2022/02/28 03:38:47;;;;;;;;;;;;;;;;;;5018658;28;19948;-58
2022/02/28 03:41:13;;;;;;;;;;;;;;;;;;5018578;28;19955;-56
2022/02/28 03:43:39;;;;;;;;;;;;;;;;;;5017636;28;20337;-58
2022/02/28 03:46:09;;;;;;;;;;;;;;;;;;5017864;28;19916;-57
2022/02/28 03:48:54;;;;;;;;;;;;;;;;;;5014756;28;19955;-57
2022/02/28 03:51:31;;;;;;;;;;;;;;;;;;5012425;28;20004;-57
2022/02/28 03:53:56;;;;;;;;;;;;;;;;;;4998729;28;20004;-57
2022/02/28 03:56:22;;;;;;;;;;;;;;;;;;4998371;28;19906;-56
2022/02/28 03:58:47;;;;;;;;;;;;;;;;;;5015921;28;19999;-56
2022/02/28 04:01:12;;;;;;;;;;;;;;;;;;4999049;28;19909;-56
2022/02/28 04:03:41;;;;;;;;;;;;;;;;;;4999103;28;19917;-56
2022/02/28 04:06:06;;;;;;;;;;;;;;;;;;4998339;28;19909;-57
2022/02/28 04:08:32;;;;;;;;;;;;;;;;;;4998088;28;19963;-57
2022/02/28 04:10:59;;;;;;;;;;;;;;;;;;4998852;28;19964;-57
2022/02/28 04:13:24;;;;;;;;;;;;;;;;;;4998032;28;19909;-57
2022/02/28 04:15:49;;;;;;;;;;;;;;;;;;5003402;28;19913;-58
2022/02/28 04:18:15;;;;;;;;;;;;;;;;;;4998424;28;19960;-58
2022/02/28 04:21:03;;;;;;;;;;;;;;;;;;5013658;28;19913;-58
2022/02/28 04:23:29;;;;;;;;;;;;;;;;;;4997595;28;19917;-58
2022/02/28 04:25:55;;;;;;;;;;;;;;;;;;5014449;28;19906;-58
2022/02/28 04:28:20;;;;;;;;;;;;;;;;;;5015570;28;19909;-58
2022/02/28 04:30:46;;;;;;;;;;;;;;;;;;4997710;28;20008;-58
2022/02/28 04:33:11;;;;;;;;;;;;;;;;;;5014287;28;19933;-58
2022/02/28 04:35:36;;;;;;;;;;;;;;;;;;4998083;28;19917;-58
2022/02/28 04:38:05;;;;;;;;;;;;;;;;;;5012248;28;20016;-58
2022/02/28 04:40:31;;;;;;;;;;;;;;;;;;4995577;28;19972;-58
2022/02/28 04:42:56;;;;;;;;;;;;;;;;;;5004715;28;19940;-58
2022/02/28 04:45:22;;;;;;;;;;;;;;;;;;5017091;28;19963;-58
2022/02/28 04:47:47;;;;;;;;;;;;;;;;;;5000701;28;19983;-57
2022/02/28 04:50:44;;;;;;;;;;;;;;;;;;5009211;28;19916;-58
2022/02/28 04:53:10;;;;;;;;;;;;;;;;;;5031701;28;19909;-58
2022/02/28 04:55:35;;;;;;;;;;;;;;;;;;5001747;28;19998;-57
2022/02/28 04:58:00;;;;;;;;;;;;;;;;;;4997730;28;19909;-58
2022/02/28 05:00:45;;;;;;;;;;;;;;;;;;4998079;28;19918;-58
2022/02/28 05:03:10;;;;;;;;;;;;;;;;;;4997168;28;19941;-58
2022/02/28 05:05:36;;;;;;;;;;;;;;;;;;4997510;28;19920;-58
2022/02/28 05:08:01;;;;;;;;;;;;;;;;;;4995689;28;19977;-58
2022/02/28 05:10:26;;;;;;;;;;;;;;;;;;4997872;28;19910;-58
2022/02/28 05:12:59;;;;;;;;;;;;;;;;;;4997292;28;19909;-58
2022/02/28 05:15:24;;;;;;;;;;;;;;;;;;4996637;28;19913;-58
2022/02/28 05:17:49;;;;;;;;;;;;;;;;;;4997505;28;19967;-58
2022/02/28 05:20:15;;;;;;;;;;;;;;;;;;4996815;28;19914;-58
2022/02/28 05:22:40;;;;;;;;;;;;;;;;;;4997695;28;19961;-58
2022/02/28 05:25:05;;;;;;;;;;;;;;;;;;4996812;28;19918;-57
2022/02/28 05:27:31;;;;;;;;;;;;;;;;;;4996858;28;19909;-60
2022/02/28 05:29:56;;;;;;;;;;;;;;;;;;4996679;28;20262;-58
2022/02/28 05:32:21;;;;;;;;;;;;;;;;;;4996855;28;19913;-58
2022/02/28 05:34:52;;;;;;;;;;;;;;;;;;5014745;28;19909;-58
2022/02/28 05:37:24;;;;;;;;;;;;;;;;;;4997557;28;19920;-58
2022/02/28 05:39:54;;;;;;;;;;;;;;;;;;4996738;28;19914;-58
2022/02/28 05:42:23;;;;;;;;;;;;;;;;;;4996680;28;20354;-58
2022/02/28 05:44:51;;;;;;;;;;;;;;;;;;5013003;28;19916;-58
2022/02/28 05:47:17;;;;;;;;;;;;;;;;;;4997500;28;19910;-58
2022/02/28 05:49:44;;;;;;;;;;;;;;;;;;4996615;28;19910;-58
2022/02/28 05:52:09;;;;;;;;;;;;;;;;;;5014868;28;20246;-58
2022/02/28 05:54:36;;;;;;;;;;;;;;;;;;5014615;28;20239;-58
2022/02/28 05:57:02;;;;;;;;;;;;;;;;;;5022023;28;19920;-58
2022/02/28 05:59:27;;;;;;;;;;;;;;;;;;5049202;28;19913;-58
2022/02/28 06:01:52;;;;;;;;;;;;;;;;;;5013688;28;19917;-58
2022/02/28 06:04:17;;;;;;;;;;;;;;;;;;5014118;28;19912;-58
2022/02/28 06:06:43;;;;;;;;;;;;;;;;;;5017449;28;20011;-58
2022/02/28 06:09:08;;;;;;;;;;;;;;;;;;5046165;28;19915;-58
2022/02/28 06:11:33;;;;;;;;;;;;;;;;;;5057689;28;20246;-58
2022/02/28 06:13:58;;;;;;;;;;;;;;;;;;5039566;28;20265;-58
2022/02/28 06:16:24;;;;;;;;;;;;;;;;;;5057540;28;19909;-59
2022/02/28 06:18:49;;;;;;;;;;;;;;;;;;5057754;28;19913;-58
2022/02/28 06:21:14;;;;;;;;;;;;;;;;;;5040106;28;19909;-57
2022/02/28 06:23:39;;;;;;;;;;;;;;;;;;5057195;28;19909;-58
2022/02/28 06:26:04;;;;;;;;;;;;;;;;;;5022999;28;19966;-58
2022/02/28 06:28:32;;;;;;;;;;;;;;;;;;5056969;28;19916;-58
2022/02/28 06:30:57;;;;;;;;;;;;;;;;;;5057320;28;19957;-58
2022/02/28 06:33:22;;;;;;;;;;;;;;;;;;5057093;28;20292;-57
2022/02/28 06:35:48;;;;;;;;;;;;;;;;;;5018664;28;19995;-57
2022/02/28 06:38:13;;;;;;;;;;;;;;;;;;5037081;28;20012;-58
2022/02/28 06:40:38;;;;;;;;;;;;;;;;;;5052437;28;20247;-58
2022/02/28 06:43:03;;;;;;;;;;;;;;;;;;5037043;28;19910;-58
2022/02/28 06:45:29;;;;;;;;;;;;;;;;;;5036781;28;19909;-57
2022/02/28 06:47:54;;;;;;;;;;;;;;;;;;5019220;28;19905;-58
2022/02/28 06:50:21;;;;;;;;;;;;;;;;;;5036893;28;19916;-58
2022/02/28 06:52:46;;;;;;;;;;;;;;;;;;5036830;28;19936;-58
2022/02/28 06:55:11;;;;;;;;;;;;;;;;;;5037118;28;20342;-58
2022/02/28 06:57:36;;;;;;;;;;;;;;;;;;5037026;28;19913;-58
2022/02/28 07:00:01;;;;;;;;;;;;;;;;;;5034277;28;19985;-58
2022/02/28 07:02:27;;;;;;;;;;;;;;;;;;5019109;28;19992;-57
2022/02/28 07:05:04;;;;;;;;;;;;;;;;;;5036632;28;19909;-56
2022/02/28 07:07:29;;;;;;;;;;;;;;;;;;5036639;28;19915;-58
2022/02/28 07:09:54;;;;;;;;;;;;;;;;;;5032887;28;19904;-58
2022/02/28 07:12:20;;;;;;;;;;;;;;;;;;5039208;28;20276;-58
2022/02/28 07:14:45;;;;;;;;;;;;;;;;;;5021851;28;19913;-58
2022/02/28 07:17:11;;;;;;;;;;;;;;;;;;5037690;28;19920;-58
2022/02/28 07:19:36;;;;;;;;;;;;;;;;;;5056182;28;19913;-58
2022/02/28 07:22:01;;;;;;;;;;;;;;;;;;5042803;28;19917;-58
2022/02/28 07:24:26;;;;;;;;;;;;;;;;;;5018924;28;19935;-58
2022/02/28 07:26:52;;;;;;;;;;;;;;;;;;5019232;28;19916;-59
2022/02/28 07:29:17;;;;;;;;;;;;;;;;;;5035967;28;19917;-58
2022/02/28 07:31:42;;;;;;;;;;;;;;;;;;5035736;28;19916;-58
2022/02/28 07:34:08;;;;;;;;;;;;;;;;;;5036334;28;20395;-57
2022/02/28 07:36:33;;;;;;;;;;;;;;;;;;5032353;28;19991;-58
2022/02/28 07:38:58;;;;;;;;;;;;;;;;;;5016035;28;19913;-58
2022/02/28 07:41:24;;;;;;;;;;;;;;;;;;5016106;28;19910;-58
2022/02/28 07:43:49;;;;;;;;;;;;;;;;;;5015998;28;20338;-58
2022/02/28 07:46:14;;;;;;;;;;;;;;;;;;5016322;28;19932;-57
2022/02/28 07:48:39;;;;;;;;;;;;;;;;;;5015995;28;20288;-58
2022/02/28 07:51:05;;;;;;;;;;;;;;;;;;5013378;28;19909;-57
2022/02/28 07:53:30;;;;;;;;;;;;;;;;;;5016317;28;19905;-57
2022/02/28 07:55:55;;;;;;;;;;;;;;;;;;5013606;28;19909;-57
2022/02/28 07:58:20;;;;;;;;;;;;;;;;;;5014143;28;21165;-58
2022/02/28 08:00:46;;;;;;;;;;;;;;;;;;5035136;28;19917;-56
2022/02/28 08:03:11;;;;;;;;;;;;;;;;;;5051081;28;20292;-57
2022/02/28 08:05:36;;;;;;;;;;;;;;;;;;5031322;28;19920;-57
2022/02/28 08:08:01;;;;;;;;;;;;;;;;;;4998134;28;20302;-58
2022/02/28 08:10:26;;;;;;;;;;;;;;;;;;5020964;28;20262;-58
2022/02/28 08:12:52;;;;;;;;;;;;;;;;;;5035151;28;19932;-57
2022/02/28 08:15:17;;;;;;;;;;;;;;;;;;5050626;28;19912;-57
2022/02/28 08:17:42;;;;;;;;;;;;;;;;;;5035087;28;19909;-57
2022/02/28 08:20:07;;;;;;;;;;;;;;;;;;5050518;28;19917;-58
2022/02/28 08:22:33;;;;;;;;;;;;;;;;;;5033717;28;19909;-58
2022/02/28 08:24:58;;;;;;;;;;;;;;;;;;5035291;28;19912;-58
2022/02/28 08:27:23;;;;;;;;;;;;;;;;;;5034986;28;19909;-58
2022/02/28 08:29:48;;;;;;;;;;;;;;;;;;5034848;28;19909;-58
2022/02/28 08:32:14;;;;;;;;;;;;;;;;;;5049917;28;19933;-58
2022/02/28 08:34:39;;;;;;;;;;;;;;;;;;5034929;28;19910;-57
2022/02/28 08:37:04;;;;;;;;;;;;;;;;;;5014331;28;19910;-57
2022/02/28 08:39:29;;;;;;;;;;;;;;;;;;5015302;28;19917;-57
2022/02/28 08:41:54;;;;;;;;;;;;;;;;;;5012834;28;19906;-57
2022/02/28 08:44:20;;;;;;;;;;;;;;;;;;5014996;28;19936;-58
2022/02/28 08:46:45;;;;;;;;;;;;;;;;;;5014874;28;19949;-57
2022/02/28 08:49:10;;;;;;;;;;;;;;;;;;4997981;28;19910;-57
2022/02/28 08:51:37;;;;;;;;;;;;;;;;;;5014534;28;20390;-58
2022/02/28 08:54:03;;;;;;;;;;;;;;;;;;5014482;28;19912;-58
2022/02/28 08:56:28;;;;;;;;;;;;;;;;;;5014987;28;19910;-58
2022/02/28 08:58:53;;;;;;;;;;;;;;;;;;5014470;28;19914;-58
2022/02/28 09:01:18;;;;;;;;;;;;;;;;;;5014622;28;19932;-58
2022/02/28 09:03:44;;;;;;;;;;;;;;;;;;5014680;28;19906;-58
2022/02/28 09:06:09;;;;;;;;;;;;;;;;;;5014940;28;19909;-58
2022/02/28 09:08:34;;;;;;;;;;;;;;;;;;5014603;28;19917;-58
2022/02/28 09:10:59;;;;;;;;;;;;;;;;;;5014558;28;20314;-58
2022/02/28 09:13:26;;;;;;;;;;;;;;;;;;5014273;28;19952;-58
2022/02/28 09:15:51;;;;;;;;;;;;;;;;;;5015137;28;19914;-58
2022/02/28 09:18:16;;;;;;;;;;;;;;;;;;5014653;28;19996;-58
2022/02/28 09:20:41;;;;;;;;;;;;;;;;;;5014129;28;19910;-58
2022/02/28 09:23:06;;;;;;;;;;;;;;;;;;5014346;28;19917;-58
2022/02/28 09:25:32;;;;;;;;;;;;;;;;;;4997213;28;19913;-58
2022/02/28 09:27:57;;;;;;;;;;;;;;;;;;5012067;28;19910;-58
2022/02/28 09:30:22;;;;;;;;;;;;;;;;;;5013904;28;19925;-58
2022/02/28 09:32:53;;;;;;;;;;;;;;;;;;4997109;28;19932;-59
2022/02/28 09:35:18;;;;;;;;;;;;;;;;;;4996557;28;20347;-59
2022/02/28 09:37:43;;;;;;;;;;;;;;;;;;5011860;28;19920;-57
2022/02/28 09:40:09;;;;;;;;;;;;;;;;;;5011156;28;20282;-59
2022/02/28 09:42:37;;;;;;;;;;;;;;;;;;5014067;28;19913;-58
2022/02/28 09:45:22;;;;;;;;;;;;;;;;;;5011299;28;20007;-58
2022/02/28 09:47:57;;;;;;;;;;;;;;;;;;5014100;28;20355;-60
2022/02/28 09:50:54;;;;;;;;;;;;;;;;;;5013769;28;20055;-57
2022/02/28 09:53:45;;;;;;;;;;;;;;;;;;4989281;28;19916;-57
2022/02/28 09:56:27;;;;;;;;;;;;;;;;;;4996625;28;20239;-57
2022/02/28 09:58:55;;;;;;;;;;;;;;;;;;5013954;28;19921;-56
2022/02/28 10:01:20;;;;;;;;;;;;;;;;;;5012973;28;19909;-57
2022/02/28 10:03:47;;;;;;;;;;;;;;;;;;4996835;28;19920;-57
2022/02/28 10:06:14;;;;;;;;;;;;;;;;;;4996587;28;19996;-57
2022/02/28 10:08:40;;;;;;;;;;;;;;;;;;5014317;28;19914;-58
2022/02/28 10:11:05;;;;;;;;;;;;;;;;;;5013986;28;19956;-57
2022/02/28 10:13:31;;;;;;;;;;;;;;;;;;5013749;28;20008;-57
2022/02/28 10:15:57;;;;;;;;;;;;;;;;;;5014348;28;19917;-56
2022/02/28 10:18:22;;;;;;;;;;;;;;;;;;5013607;28;19914;-58
2022/02/28 10:20:48;;;;;;;;;;;;;;;;;;5030530;28;19920;-57
2022/02/28 10:23:13;;;;;;;;;;;;;;;;;;5033511;28;19909;-57
2022/02/28 10:26:14;;;;;;;;;;;;;;;;;;5016164;28;19944;-57
2022/02/28 10:28:57;;;;;;;;;;;;;;;;;;5031110;28;19963;-57
2022/02/28 10:31:43;;;;;;;;;;;;;;;;;;5012188;28;19964;-57
2022/02/28 10:34:27;;;;;;;;;;;;;;;;;;5033601;28;20281;-57
2022/02/28 10:37:10;;;;;;;;;;;;;;;;;;5013529;28;19921;-57
2022/02/28 10:39:36;;;;;;;;;;;;;;;;;;5013708;28;19917;-58
2022/02/28 10:42:01;;;;;;;;;;;;;;;;;;5013528;28;19909;-59
2022/02/28 10:44:26;;;;;;;;;;;;;;;;;;5013547;28;19916;-59
2022/02/28 10:46:51;;;;;;;;;;;;;;;;;;5014027;28;19910;-58
2022/02/28 10:49:17;;;;;;;;;;;;;;;;;;5013906;28;19924;-58
2022/02/28 10:51:43;;;;;;;;;;;;;;;;;;5028481;28;19906;-58
2022/02/28 10:54:08;;;;;;;;;;;;;;;;;;5016914;28;20359;-58
2022/02/28 10:56:33;;;;;;;;;;;;;;;;;;5017025;28;19906;-58
2022/02/28 10:58:58;;;;;;;;;;;;;;;;;;5017099;28;20303;-58
2022/02/28 11:01:24;;;;;;;;;;;;;;;;;;4999225;28;19910;-58
2022/02/28 11:03:49;;;;;;;;;;;;;;;;;;5016714;28;19906;-59
2022/02/28 11:06:14;;;;;;;;;;;;;;;;;;5016506;28;19917;-57
2022/02/28 11:08:39;;;;;;;;;;;;;;;;;;5017115;28;19906;-58
2022/02/28 11:11:04;;;;;;;;;;;;;;;;;;5016232;28;20374;-58
2022/02/28 11:13:30;;;;;;;;;;;;;;;;;;5016766;28;20020;-58
2022/02/28 11:15:55;;;;;;;;;;;;;;;;;;5017356;28;19913;-58
2022/02/28 11:18:23;;;;;;;;;;;;;;;;;;5016032;28;19909;-58
2022/02/28 11:20:49;;;;;;;;;;;;;;;;;;5029314;28;19914;-56
2022/02/28 11:23:18;;;;;;;;;;;;;;;;;;5011976;28;19909;-58
2022/02/28 11:25:44;;;;;;;;;;;;;;;;;;5035888;28;20015;-59
2022/02/28 11:28:09;;;;;;;;;;;;;;;;;;5035968;28;20377;-59
2022/02/28 11:30:34;;;;;;;;;;;;;;;;;;5036008;28;19916;-58
2022/02/28 11:32:59;;;;;;;;;;;;;;;;;;5035814;28;19913;-58
2022/02/28 11:35:24;;;;;;;;;;;;;;;;;;5035837;28;19909;-59
2022/02/28 11:37:50;;;;;;;;;;;;;;;;;;5035932;28;20269;-58
2022/02/28 11:40:15;;;;;;;;;;;;;;;;;;5035465;28;20385;-58
2022/02/28 11:42:40;;;;;;;;;;;;;;;;;;5035503;28;19956;-58
2022/02/28 11:45:05;;;;;;;;;;;;;;;;;;5035649;28;19912;-58
2022/02/28 11:47:30;;;;;;;;;;;;;;;;;;5033179;28;19962;-59
2022/02/28 11:49:56;;;;;;;;;;;;;;;;;;5033046;28;19986;-59
2022/02/28 11:52:21;;;;;;;;;;;;;;;;;;5035339;28;19909;-57
2022/02/28 11:54:46;;;;;;;;;;;;;;;;;;5035820;28;19916;-58
2022/02/28 11:57:11;;;;;;;;;;;;;;;;;;5035695;28;19949;-57
2022/02/28 11:59:36;;;;;;;;;;;;;;;;;;5032431;28;19917;-58
2022/02/28 12:02:02;;;;;;;;;;;;;;;;;;5050778;28;19909;-57
2022/02/28 12:04:27;;;;;;;;;;;;;;;;;;5032052;28;19909;-58
2022/02/28 12:31:42;;;;;;;;;;;;;;;;;;5034894;28;19913;-57
2022/02/28 12:34:08;;;;;;;;;;;;;;;;;;5050049;28;19916;-57
2022/02/28 12:36:33;;;;;;;;;;;;;;;;;;5017353;28;19909;-57
2022/02/28 12:38:59;;;;;;;;;;;;;;;;;;5034795;28;20404;-57
2022/02/28 12:41:24;;;;;;;;;;;;;;;;;;5034713;28;19905;-58
2022/02/28 12:43:49;;;;;;;;;;;;;;;;;;5034411;28;20316;-57
2022/02/28 12:46:14;;;;;;;;;;;;;;;;;;5034677;28;20377;-58
2022/02/28 12:48:40;;;;;;;;;;;;;;;;;;5034556;28;20222;-58
2022/02/28 12:51:05;;;;;;;;;;;;;;;;;;5034429;28;19905;-58
2022/02/28 12:53:30;;;;;;;;;;;;;;;;;;5050717;28;20316;-57
2022/02/28 12:55:55;;;;;;;;;;;;;;;;;;5034483;28;19938;-58
2022/02/28 12:58:21;;;;;;;;;;;;;;;;;;5034879;28;19913;-58
2022/02/28 13:00:47;;;;;;;;;;;;;;;;;;5034258;28;19913;-58
2022/02/28 13:03:12;;;;;;;;;;;;;;;;;;5034585;28;19909;-58
2022/02/28 13:05:38;;;;;;;;;;;;;;;;;;5034215;28;19959;-58
2022/02/28 13:08:03;;;;;;;;;;;;;;;;;;5034048;28;19916;-58
2022/02/28 13:10:28;;;;;;;;;;;;;;;;;;5050363;28;19909;-58
2022/02/28 13:12:54;;;;;;;;;;;;;;;;;;5034071;28;20346;-58
2022/02/28 13:15:19;;;;;;;;;;;;;;;;;;5015477;28;19920;-58
2022/02/28 13:17:44;;;;;;;;;;;;;;;;;;5034102;28;19960;-58
2022/02/28 13:20:09;;;;;;;;;;;;;;;;;;5033830;28;20265;-59
2022/02/28 13:22:36;;;;;;;;;;;;;;;;;;5049348;28;19909;-58
2022/02/28 13:25:01;;;;;;;;;;;;;;;;;;5034031;28;19913;-58
2022/02/28 13:27:26;;;;;;;;;;;;;;;;;;5033969;28;20334;-58
2022/02/28 13:29:52;;;;;;;;;;;;;;;;;;5034331;28;19912;-58
2022/02/28 13:32:18;;;;;;;;;;;;;;;;;;5017086;28;19920;-58
2022/02/28 13:34:43;;;;;;;;;;;;;;;;;;5031718;28;19905;-58
2022/02/28 13:37:09;;;;;;;;;;;;;;;;;;5034068;28;19964;-58
2022/02/28 13:39:34;;;;;;;;;;;;;;;;;;5033606;28;19909;-58
2022/02/28 13:41:59;;;;;;;;;;;;;;;;;;5033756;28;19917;-58
2022/02/28 13:44:27;;;;;;;;;;;;;;;;;;5034245;28;20007;-58
2022/02/28 13:46:52;;;;;;;;;;;;;;;;;;5033652;28;19971;-58
2022/02/28 13:49:18;;;;;;;;;;;;;;;;;;5033398;28;20320;-61
2022/02/28 13:51:43;;;;;;;;;;;;;;;;;;5033535;28;19909;-58
2022/02/28 13:54:09;;;;;;;;;;;;;;;;;;5034118;28;19909;-58
2022/02/28 13:56:34;;;;;;;;;;;;;;;;;;5033362;28;19909;-58
2022/02/28 13:58:59;;;;;;;;;;;;;;;;;;5033559;28;19909;-58
2022/02/28 14:01:24;;;;;;;;;;;;;;;;;;5043614;28;19906;-58
2022/02/28 14:03:49;;;;;;;;;;;;;;;;;;5013879;28;20004;-58
2022/02/28 14:06:15;;;;;;;;;;;;;;;;;;5014083;28;19910;-58
2022/02/28 14:08:40;;;;;;;;;;;;;;;;;;4996135;28;19920;-58
2022/02/28 14:11:05;;;;;;;;;;;;;;;;;;5013615;28;19963;-58
2022/02/28 14:13:30;;;;;;;;;;;;;;;;;;4996051;28;20389;-58
2022/02/28 14:15:55;;;;;;;;;;;;;;;;;;5014441;28;19913;-58
2022/02/28 14:18:21;;;;;;;;;;;;;;;;;;4996556;28;19916;-57
2022/02/28 14:20:46;;;;;;;;;;;;;;;;;;4996157;28;19910;-57
2022/02/28 14:23:20;;;;;;;;;;;;;;;;;;5013739;28;19916;-58
2022/02/28 14:26:15;;;;;;;;;;;;;;;;;;5014302;28;20008;-58
2022/02/28 14:29:10;;;;;;;;;;;;;;;;;;4963992;28;20009;-58
2022/02/28 14:31:56;;;;;;;;;;;;;;;;;;4986604;28;19945;-58
2022/02/28 14:34:21;;;;;;;;;;;;;;;;;;4999584;28;19909;-58
2022/02/28 14:36:46;;;;;;;;;;;;;;;;;;5017368;28;19922;-58
2022/02/28 14:39:12;;;;;;;;;;;;;;;;;;4984463;28;19961;-58
2022/02/28 14:41:37;;;;;;;;;;;;;;;;;;5017484;28;19960;-58
2022/02/28 14:44:02;;;;;;;;;;;;;;;;;;4999659;28;19917;-58
2022/02/28 14:46:28;;;;;;;;;;;;;;;;;;5016448;28;20029;-58
2022/02/28 14:48:53;;;;;;;;;;;;;;;;;;5017646;28;19917;-58
2022/02/28 14:51:18;;;;;;;;;;;;;;;;;;5016783;28;20414;-58
2022/02/28 14:53:45;;;;;;;;;;;;;;;;;;5016941;28;19960;-58
2022/02/28 14:56:11;;;;;;;;;;;;;;;;;;5016915;28;19996;-58
2022/02/28 14:58:36;;;;;;;;;;;;;;;;;;5017388;28;19941;-58
2022/02/28 15:01:01;;;;;;;;;;;;;;;;;;4999145;28;20366;-58
2022/02/28 15:03:27;;;;;;;;;;;;;;;;;;4999634;28;19905;-58
2022/02/28 15:05:52;;;;;;;;;;;;;;;;;;5016769;28;19963;-58
2022/02/28 15:08:17;;;;;;;;;;;;;;;;;;5016602;28;19925;-58
2022/02/28 15:10:43;;;;;;;;;;;;;;;;;;5016370;28;20005;-57
2022/02/28 15:13:08;;;;;;;;;;;;;;;;;;5016579;28;19959;-58
2022/02/28 15:15:33;;;;;;;;;;;;;;;;;;5004908;28;19920;-57
2022/02/28 15:17:58;;;;;;;;;;;;;;;;;;5016298;28;19917;-58
2022/02/28 15:20:23;;;;;;;;;;;;;;;;;;5016539;28;19912;-58
2022/02/28 15:22:49;;;;;;;;;;;;;;;;;;5016486;28;19910;-58
2022/02/28 15:25:16;;;;;;;;;;;;;;;;;;5016362;28;19921;-58
2022/02/28 15:27:41;;;;;;;;;;;;;;;;;;5016468;28;19913;-58
2022/02/28 15:30:07;;;;;;;;;;;;;;;;;;5031859;28;20001;-58
2022/02/28 15:32:32;;;;;;;;;;;;;;;;;;5016865;28;19910;-58
2022/02/28 15:34:58;;;;;;;;;;;;;;;;;;5016593;28;19961;-58
2022/02/28 15:37:23;;;;;;;;;;;;;;;;;;5015690;28;19913;-58
2022/02/28 15:39:50;;;;;;;;;;;;;;;;;;5015942;28;19906;-59
2022/02/28 15:42:15;;;;;;;;;;;;;;;;;;5016484;28;19988;-61
2022/02/28 15:44:40;;;;;;;;;;;;;;;;;;5016254;28;19952;-58
2022/02/28 15:47:05;;;;;;;;;;;;;;;;;;5016095;28;19964;-60
2022/02/28 15:49:32;;;;;;;;;;;;;;;;;;5015861;28;20008;-59
2022/02/28 15:51:57;;;;;;;;;;;;;;;;;;5013980;28;19909;-57
2022/02/28 15:54:23;;;;;;;;;;;;;;;;;;5016274;28;19917;-57
2022/02/28 15:56:48;;;;;;;;;;;;;;;;;;4997941;28;19916;-57
2022/02/28 15:59:13;;;;;;;;;;;;;;;;;;5015571;28;20000;-57
2022/02/28 16:01:38;;;;;;;;;;;;;;;;;;5015568;28;19905;-57
2022/02/28 16:04:04;;;;;;;;;;;;;;;;;;5031181;28;20235;-57
2022/02/28 16:06:29;;;;;;;;;;;;;;;;;;5019434;28;19909;-57
2022/02/28 16:08:55;;;;;;;;;;;;;;;;;;5035217;28;19976;-58
2022/02/28 16:11:21;;;;;;;;;;;;;;;;;;5035950;28;19913;-58
2022/02/28 16:13:46;;;;;;;;;;;;;;;;;;5035470;28;20250;-58
2022/02/28 16:16:12;;;;;;;;;;;;;;;;;;5032546;28;20258;-58
2022/02/28 16:18:37;;;;;;;;;;;;;;;;;;5034867;28;19916;-57
2022/02/28 16:21:02;;;;;;;;;;;;;;;;;;5050633;28;19916;-57
2022/02/28 16:23:27;;;;;;;;;;;;;;;;;;5035218;28;19909;-57
2022/02/28 16:25:54;;;;;;;;;;;;;;;;;;5035169;28;19910;-57
2022/02/28 16:28:19;;;;;;;;;;;;;;;;;;5033008;28;19920;-57
2022/02/28 16:30:44;;;;;;;;;;;;;;;;;;5035082;28;19917;-57
2022/02/28 16:33:10;;;;;;;;;;;;;;;;;;5035105;28;19916;-57
2022/02/28 16:35:35;;;;;;;;;;;;;;;;;;5034761;28;19905;-57
2022/02/28 16:38:02;;;;;;;;;;;;;;;;;;5034994;28;19910;-57
2022/02/28 16:40:27;;;;;;;;;;;;;;;;;;5034642;28;19909;-57
2022/02/28 16:42:52;;;;;;;;;;;;;;;;;;5035681;28;19980;-57
2022/02/28 16:45:17;;;;;;;;;;;;;;;;;;5032307;28;20337;-57
2022/02/28 16:47:42;;;;;;;;;;;;;;;;;;5042332;28;19913;-56
2022/02/28 16:50:08;;;;;;;;;;;;;;;;;;5014680;28;20016;-56
2022/02/28 16:52:33;;;;;;;;;;;;;;;;;;5016945;28;20261;-56
2022/02/28 16:54:58;;;;;;;;;;;;;;;;;;5028312;28;19984;-56
2022/02/28 16:57:24;;;;;;;;;;;;;;;;;;5014657;28;19936;-56
2022/02/28 16:59:49;;;;;;;;;;;;;;;;;;5019008;28;19913;-56
2022/02/28 17:02:14;;;;;;;;;;;;;;;;;;5034621;28;19916;-56
2022/02/28 17:04:39;;;;;;;;;;;;;;;;;;5034230;28;20342;-56